sensor_id;sensor_type;location;lat;lon;timestamp;pressure;altitude;pressure_sealevel;temperature
71640;BMP280;60912;48.968;10.124;2023-07-30T00:00:40;96213.91;;;19.77
71640;BMP280;60912;48.968;10.124;2023-07-30T00:03:05;96235.06;;;19.54
71640;BMP280;60912;48.968;10.124;2023-07-30T00:05:30;96268.69;;;19.43
71640;BMP280;60912;48.968;10.124;2023-07-30T00:07:56;96270.09;;;19.30
71640;BMP280;60912;48.968;10.124;2023-07-30T00:10:21;96228.13;;;19.05
71640;BMP280;60912;48.968;10.124;2023-07-30T00:12:47;96204.44;;;18.81
71640;BMP280;60912;48.968;10.124;2023-07-30T00:15:12;96225.16;;;18.89
71640;BMP280;60912;48.968;10.124;2023-07-30T00:17:38;96223.25;;;18.80
71640;BMP280;60912;48.968;10.124;2023-07-30T00:20:05;96238.84;;;18.97
71640;BMP280;60912;48.968;10.124;2023-07-30T00:22:31;96227.00;;;18.85
71640;BMP280;60912;48.968;10.124;2023-07-30T00:24:56;96226.72;;;18.92
71640;BMP280;60912;48.968;10.124;2023-07-30T00:27:22;96236.41;;;19.03
71640;BMP280;60912;48.968;10.124;2023-07-30T00:29:47;96242.31;;;19.09
71640;BMP280;60912;48.968;10.124;2023-07-30T00:32:12;96223.84;;;18.90
71640;BMP280;60912;48.968;10.124;2023-07-30T00:34:41;96218.28;;;18.79
71640;BMP280;60912;48.968;10.124;2023-07-30T00:37:06;96195.94;;;18.79
71640;BMP280;60912;48.968;10.124;2023-07-30T00:39:31;96132.97;;;18.76
71640;BMP280;60912;48.968;10.124;2023-07-30T00:41:57;96112.28;;;18.55
71640;BMP280;60912;48.968;10.124;2023-07-30T00:44:22;96142.72;;;18.63
71640;BMP280;60912;48.968;10.124;2023-07-30T00:46:47;96173.78;;;18.69
71640;BMP280;60912;48.968;10.124;2023-07-30T00:49:13;96208.56;;;18.80
71640;BMP280;60912;48.968;10.124;2023-07-30T00:51:39;96223.22;;;18.92
71640;BMP280;60912;48.968;10.124;2023-07-30T00:54:05;96223.41;;;18.96
71640;BMP280;60912;48.968;10.124;2023-07-30T00:56:31;96228.63;;;19.01
71640;BMP280;60912;48.968;10.124;2023-07-30T00:58:56;96230.38;;;18.95
71640;BMP280;60912;48.968;10.124;2023-07-30T01:01:22;96219.69;;;18.91
71640;BMP280;60912;48.968;10.124;2023-07-30T01:03:47;96207.84;;;18.79
71640;BMP280;60912;48.968;10.124;2023-07-30T01:06:12;96208.94;;;18.74
71640;BMP280;60912;48.968;10.124;2023-07-30T01:08:38;96200.06;;;18.78
71640;BMP280;60912;48.968;10.124;2023-07-30T01:11:04;96217.78;;;18.82
71640;BMP280;60912;48.968;10.124;2023-07-30T01:13:31;96212.03;;;18.92
71640;BMP280;60912;48.968;10.124;2023-07-30T01:15:58;96206.47;;;18.92
71640;BMP280;60912;48.968;10.124;2023-07-30T01:18:23;96219.44;;;18.87
71640;BMP280;60912;48.968;10.124;2023-07-30T01:20:58;96216.44;;;18.95
71640;BMP280;60912;48.968;10.124;2023-07-30T01:23:24;96231.44;;;19.01
71640;BMP280;60912;48.968;10.124;2023-07-30T01:25:52;96233.63;;;19.03
71640;BMP280;60912;48.968;10.124;2023-07-30T01:28:21;96229.06;;;19.09
71640;BMP280;60912;48.968;10.124;2023-07-30T01:30:47;96229.81;;;19.10
71640;BMP280;60912;48.968;10.124;2023-07-30T01:33:13;96228.03;;;19.03
71640;BMP280;60912;48.968;10.124;2023-07-30T01:35:40;96225.84;;;19.01
71640;BMP280;60912;48.968;10.124;2023-07-30T01:38:07;96225.97;;;19.03
71640;BMP280;60912;48.968;10.124;2023-07-30T01:40:33;96221.44;;;19.10
71640;BMP280;60912;48.968;10.124;2023-07-30T01:42:58;96222.06;;;19.08
71640;BMP280;60912;48.968;10.124;2023-07-30T01:45:24;96221.56;;;19.12
71640;BMP280;60912;48.968;10.124;2023-07-30T01:47:49;96230.03;;;19.14
71640;BMP280;60912;48.968;10.124;2023-07-30T01:50:15;96234.16;;;19.13
71640;BMP280;60912;48.968;10.124;2023-07-30T01:52:40;96229.81;;;19.10
71640;BMP280;60912;48.968;10.124;2023-07-30T01:55:06;96223.63;;;19.11
71640;BMP280;60912;48.968;10.124;2023-07-30T01:57:31;96223.97;;;19.17
71640;BMP280;60912;48.968;10.124;2023-07-30T01:59:57;96217.88;;;19.21
71640;BMP280;60912;48.968;10.124;2023-07-30T02:02:22;96212.28;;;19.21
71640;BMP280;60912;48.968;10.124;2023-07-30T02:04:47;96215.06;;;19.21
71640;BMP280;60912;48.968;10.124;2023-07-30T02:07:12;96217.53;;;19.15
71640;BMP280;60912;48.968;10.124;2023-07-30T02:09:38;96230.69;;;19.01
71640;BMP280;60912;48.968;10.124;2023-07-30T02:12:03;96228.69;;;18.90
71640;BMP280;60912;48.968;10.124;2023-07-30T02:14:29;96224.84;;;18.72
71640;BMP280;60912;48.968;10.124;2023-07-30T02:16:54;96229.94;;;18.63
71640;BMP280;60912;48.968;10.124;2023-07-30T02:19:19;96225.97;;;18.66
71640;BMP280;60912;48.968;10.124;2023-07-30T02:21:45;96225.56;;;18.72
71640;BMP280;60912;48.968;10.124;2023-07-30T02:24:10;96226.28;;;18.73
71640;BMP280;60912;48.968;10.124;2023-07-30T02:26:37;96222.06;;;18.72
71640;BMP280;60912;48.968;10.124;2023-07-30T02:29:03;96219.38;;;18.74
71640;BMP280;60912;48.968;10.124;2023-07-30T02:31:28;96225.19;;;18.78
71640;BMP280;60912;48.968;10.124;2023-07-30T02:33:53;96235.03;;;18.79
71640;BMP280;60912;48.968;10.124;2023-07-30T02:36:19;96232.38;;;18.81
71640;BMP280;60912;48.968;10.124;2023-07-30T02:38:44;96231.34;;;18.88
71640;BMP280;60912;48.968;10.124;2023-07-30T02:41:09;96231.00;;;18.93
71640;BMP280;60912;48.968;10.124;2023-07-30T02:43:35;96236.19;;;18.99
71640;BMP280;60912;48.968;10.124;2023-07-30T02:46:00;96235.91;;;19.06
71640;BMP280;60912;48.968;10.124;2023-07-30T02:48:25;96235.19;;;19.06
71640;BMP280;60912;48.968;10.124;2023-07-30T02:50:51;96236.41;;;19.03
71640;BMP280;60912;48.968;10.124;2023-07-30T02:53:16;96240.16;;;18.96
71640;BMP280;60912;48.968;10.124;2023-07-30T02:55:41;96230.75;;;18.89
71640;BMP280;60912;48.968;10.124;2023-07-30T02:58:07;96238.69;;;18.69
71640;BMP280;60912;48.968;10.124;2023-07-30T03:00:32;96235.91;;;18.69
71640;BMP280;60912;48.968;10.124;2023-07-30T03:03:00;96249.25;;;18.71
71640;BMP280;60912;48.968;10.124;2023-07-30T03:05:27;96239.19;;;18.66
71640;BMP280;60912;48.968;10.124;2023-07-30T03:07:52;96243.91;;;18.75
71640;BMP280;60912;48.968;10.124;2023-07-30T03:10:18;96247.19;;;18.72
71640;BMP280;60912;48.968;10.124;2023-07-30T03:12:43;96249.13;;;18.81
71640;BMP280;60912;48.968;10.124;2023-07-30T03:15:09;96254.81;;;18.83
71640;BMP280;60912;48.968;10.124;2023-07-30T03:17:34;96250.06;;;18.85
71640;BMP280;60912;48.968;10.124;2023-07-30T03:19:59;96255.44;;;18.69
71640;BMP280;60912;48.968;10.124;2023-07-30T03:22:25;96253.63;;;18.62
71640;BMP280;60912;48.968;10.124;2023-07-30T03:24:50;96252.41;;;18.65
71640;BMP280;60912;48.968;10.124;2023-07-30T03:27:15;96266.81;;;18.74
71640;BMP280;60912;48.968;10.124;2023-07-30T03:29:41;96250.72;;;18.60
71640;BMP280;60912;48.968;10.124;2023-07-30T03:32:06;96246.25;;;18.55
71640;BMP280;60912;48.968;10.124;2023-07-30T03:34:32;96255.94;;;18.54
71640;BMP280;60912;48.968;10.124;2023-07-30T03:36:57;96257.53;;;18.57
71640;BMP280;60912;48.968;10.124;2023-07-30T03:39:25;96256.28;;;18.60
71640;BMP280;60912;48.968;10.124;2023-07-30T03:41:50;96244.53;;;18.62
71640;BMP280;60912;48.968;10.124;2023-07-30T03:44:15;96243.22;;;18.51
71640;BMP280;60912;48.968;10.124;2023-07-30T03:46:42;96245.50;;;18.55
71640;BMP280;60912;48.968;10.124;2023-07-30T03:49:08;96243.06;;;18.49
71640;BMP280;60912;48.968;10.124;2023-07-30T03:51:33;96257.16;;;18.51
71640;BMP280;60912;48.968;10.124;2023-07-30T03:53:58;96248.94;;;18.53
71640;BMP280;60912;48.968;10.124;2023-07-30T03:56:24;96257.41;;;18.55
71640;BMP280;60912;48.968;10.124;2023-07-30T03:58:50;96249.28;;;18.48
71640;BMP280;60912;48.968;10.124;2023-07-30T04:01:15;96244.53;;;18.50
71640;BMP280;60912;48.968;10.124;2023-07-30T04:03:41;96247.22;;;18.48
71640;BMP280;60912;48.968;10.124;2023-07-30T04:06:06;96250.38;;;18.54
71640;BMP280;60912;48.968;10.124;2023-07-30T04:08:31;96247.72;;;18.56
71640;BMP280;60912;48.968;10.124;2023-07-30T04:10:57;96248.78;;;18.63
71640;BMP280;60912;48.968;10.124;2023-07-30T04:13:22;96262.34;;;18.68
71640;BMP280;60912;48.968;10.124;2023-07-30T04:15:48;96261.47;;;18.78
71640;BMP280;60912;48.968;10.124;2023-07-30T04:18:13;96262.22;;;18.78
71640;BMP280;60912;48.968;10.124;2023-07-30T04:20:38;96266.97;;;18.76
71640;BMP280;60912;48.968;10.124;2023-07-30T04:23:04;96269.03;;;18.63
71640;BMP280;60912;48.968;10.124;2023-07-30T04:25:29;96271.81;;;18.63
71640;BMP280;60912;48.968;10.124;2023-07-30T04:27:54;96268.78;;;18.59
71640;BMP280;60912;48.968;10.124;2023-07-30T04:30:20;96280.69;;;18.72
71640;BMP280;60912;48.968;10.124;2023-07-30T04:32:45;96282.97;;;18.75
71640;BMP280;60912;48.968;10.124;2023-07-30T04:35:10;96290.25;;;18.80
71640;BMP280;60912;48.968;10.124;2023-07-30T04:37:36;96280.63;;;18.83
71640;BMP280;60912;48.968;10.124;2023-07-30T04:40:01;96281.59;;;18.88
71640;BMP280;60912;48.968;10.124;2023-07-30T04:42:27;96283.06;;;18.89
71640;BMP280;60912;48.968;10.124;2023-07-30T04:44:52;96291.16;;;18.96
71640;BMP280;60912;48.968;10.124;2023-07-30T04:47:18;96292.13;;;19.01
71640;BMP280;60912;48.968;10.124;2023-07-30T04:49:43;96294.41;;;19.16
71640;BMP280;60912;48.968;10.124;2023-07-30T04:52:09;96292.19;;;19.26
71640;BMP280;60912;48.968;10.124;2023-07-30T04:54:34;96292.19;;;19.26
71640;BMP280;60912;48.968;10.124;2023-07-30T04:57:02;96302.88;;;19.30
71640;BMP280;60912;48.968;10.124;2023-07-30T04:59:27;96294.81;;;19.36
71640;BMP280;60912;48.968;10.124;2023-07-30T05:01:52;96293.94;;;19.45
71640;BMP280;60912;48.968;10.124;2023-07-30T05:04:18;96295.00;;;19.51
71640;BMP280;60912;48.968;10.124;2023-07-30T05:06:43;96292.50;;;19.44
71640;BMP280;60912;48.968;10.124;2023-07-30T05:09:08;96288.91;;;19.55
71640;BMP280;60912;48.968;10.124;2023-07-30T05:11:34;96284.84;;;19.69
71640;BMP280;60912;48.968;10.124;2023-07-30T05:13:59;96294.66;;;19.70
71640;BMP280;60912;48.968;10.124;2023-07-30T05:16:25;96300.47;;;19.74
71640;BMP280;60912;48.968;10.124;2023-07-30T05:18:50;96299.00;;;19.73
71640;BMP280;60912;48.968;10.124;2023-07-30T05:21:15;96291.41;;;19.88
71640;BMP280;60912;48.968;10.124;2023-07-30T05:23:41;96292.78;;;20.00
71640;BMP280;60912;48.968;10.124;2023-07-30T05:26:06;96302.59;;;20.01
71640;BMP280;60912;48.968;10.124;2023-07-30T05:28:32;96307.47;;;20.01
71640;BMP280;60912;48.968;10.124;2023-07-30T05:30:58;96302.41;;;20.11
71640;BMP280;60912;48.968;10.124;2023-07-30T05:33:23;96310.50;;;20.18
71640;BMP280;60912;48.968;10.124;2023-07-30T05:35:49;96303.03;;;20.23
71640;BMP280;60912;48.968;10.124;2023-07-30T05:38:14;96299.34;;;20.32
71640;BMP280;60912;48.968;10.124;2023-07-30T05:40:41;96299.75;;;20.40
71640;BMP280;60912;48.968;10.124;2023-07-30T05:43:06;96302.47;;;20.38
71640;BMP280;60912;48.968;10.124;2023-07-30T05:45:33;96302.97;;;20.48
71640;BMP280;60912;48.968;10.124;2023-07-30T05:47:59;96301.75;;;20.51
71640;BMP280;60912;48.968;10.124;2023-07-30T05:50:24;96308.91;;;20.54
71640;BMP280;60912;48.968;10.124;2023-07-30T05:52:50;96297.38;;;20.62
71640;BMP280;60912;48.968;10.124;2023-07-30T05:55:15;96301.72;;;20.65
71640;BMP280;60912;48.968;10.124;2023-07-30T05:57:40;96300.25;;;20.77
71640;BMP280;60912;48.968;10.124;2023-07-30T06:00:06;96302.66;;;20.83
71640;BMP280;60912;48.968;10.124;2023-07-30T06:02:32;96296.97;;;20.67
71640;BMP280;60912;48.968;10.124;2023-07-30T06:04:57;96305.38;;;20.67
71640;BMP280;60912;48.968;10.124;2023-07-30T06:07:22;96311.19;;;20.58
71640;BMP280;60912;48.968;10.124;2023-07-30T06:09:48;96305.25;;;20.52
71640;BMP280;60912;48.968;10.124;2023-07-30T06:12:13;96310.00;;;20.36
71640;BMP280;60912;48.968;10.124;2023-07-30T06:14:38;96306.69;;;20.39
71640;BMP280;60912;48.968;10.124;2023-07-30T06:17:04;96313.13;;;20.28
71640;BMP280;60912;48.968;10.124;2023-07-30T06:19:29;96317.59;;;20.33
71640;BMP280;60912;48.968;10.124;2023-07-30T06:21:55;96312.50;;;20.43
71640;BMP280;60912;48.968;10.124;2023-07-30T06:24:20;96317.06;;;20.64
71640;BMP280;60912;48.968;10.124;2023-07-30T06:26:45;96320.59;;;20.64
71640;BMP280;60912;48.968;10.124;2023-07-30T06:29:10;96315.22;;;20.68
71640;BMP280;60912;48.968;10.124;2023-07-30T06:31:36;96320.06;;;20.81
71640;BMP280;60912;48.968;10.124;2023-07-30T06:34:01;96323.38;;;20.92
71640;BMP280;60912;48.968;10.124;2023-07-30T06:36:27;96326.94;;;20.78
71640;BMP280;60912;48.968;10.124;2023-07-30T06:38:52;96326.31;;;20.66
71640;BMP280;60912;48.968;10.124;2023-07-30T06:41:17;96322.66;;;20.64
71640;BMP280;60912;48.968;10.124;2023-07-30T06:43:43;96331.59;;;20.74
71640;BMP280;60912;48.968;10.124;2023-07-30T06:46:08;96329.72;;;20.78
71640;BMP280;60912;48.968;10.124;2023-07-30T06:48:33;96328.06;;;20.73
71640;BMP280;60912;48.968;10.124;2023-07-30T06:50:59;96327.03;;;20.67
71640;BMP280;60912;48.968;10.124;2023-07-30T06:53:24;96337.09;;;20.58
71640;BMP280;60912;48.968;10.124;2023-07-30T06:55:49;96332.09;;;20.43
71640;BMP280;60912;48.968;10.124;2023-07-30T06:58:15;96341.63;;;20.52
71640;BMP280;60912;48.968;10.124;2023-07-30T07:00:40;96340.59;;;20.72
71640;BMP280;60912;48.968;10.124;2023-07-30T07:03:05;96336.34;;;20.85
71640;BMP280;60912;48.968;10.124;2023-07-30T07:05:31;96341.53;;;20.91
71640;BMP280;60912;48.968;10.124;2023-07-30T07:07:56;96347.31;;;21.22
71640;BMP280;60912;48.968;10.124;2023-07-30T07:10:21;96347.91;;;21.34
71640;BMP280;60912;48.968;10.124;2023-07-30T07:12:47;96345.84;;;21.50
71640;BMP280;60912;48.968;10.124;2023-07-30T07:15:12;96339.22;;;21.57
71640;BMP280;60912;48.968;10.124;2023-07-30T07:17:38;96349.56;;;21.68
71640;BMP280;60912;48.968;10.124;2023-07-30T07:20:04;96354.22;;;21.64
71640;BMP280;60912;48.968;10.124;2023-07-30T07:22:31;96347.56;;;21.71
71640;BMP280;60912;48.968;10.124;2023-07-30T07:24:56;96342.19;;;22.06
71640;BMP280;60912;48.968;10.124;2023-07-30T07:27:22;96350.13;;;22.43
71640;BMP280;60912;48.968;10.124;2023-07-30T07:29:49;96349.44;;;22.42
71640;BMP280;60912;48.968;10.124;2023-07-30T07:32:15;96337.81;;;22.50
71640;BMP280;60912;48.968;10.124;2023-07-30T07:34:40;96342.34;;;22.41
71640;BMP280;60912;48.968;10.124;2023-07-30T07:37:06;96339.44;;;22.55
71640;BMP280;60912;48.968;10.124;2023-07-30T07:39:33;96337.53;;;22.28
71640;BMP280;60912;48.968;10.124;2023-07-30T07:41:58;96354.47;;;21.83
71640;BMP280;60912;48.968;10.124;2023-07-30T07:44:24;96351.91;;;21.89
71640;BMP280;60912;48.968;10.124;2023-07-30T07:46:49;96353.78;;;22.30
71640;BMP280;60912;48.968;10.124;2023-07-30T07:49:14;96351.59;;;22.44
71640;BMP280;60912;48.968;10.124;2023-07-30T07:51:40;96360.41;;;22.85
71640;BMP280;60912;48.968;10.124;2023-07-30T07:54:05;96356.63;;;23.47
71640;BMP280;60912;48.968;10.124;2023-07-30T07:56:31;96349.81;;;24.07
71640;BMP280;60912;48.968;10.124;2023-07-30T07:58:57;96350.09;;;24.96
71640;BMP280;60912;48.968;10.124;2023-07-30T08:01:22;96356.41;;;24.95
71640;BMP280;60912;48.968;10.124;2023-07-30T08:03:48;96357.13;;;25.38
71640;BMP280;60912;48.968;10.124;2023-07-30T08:06:14;96365.81;;;25.68
71640;BMP280;60912;48.968;10.124;2023-07-30T08:08:39;96364.53;;;24.85
71640;BMP280;60912;48.968;10.124;2023-07-30T08:11:08;96370.53;;;24.55
71640;BMP280;60912;48.968;10.124;2023-07-30T08:13:35;96368.88;;;24.48
71640;BMP280;60912;48.968;10.124;2023-07-30T08:16:01;96362.63;;;24.91
71640;BMP280;60912;48.968;10.124;2023-07-30T08:18:27;96365.34;;;25.09
71640;BMP280;60912;48.968;10.124;2023-07-30T08:20:52;96369.66;;;25.33
71640;BMP280;60912;48.968;10.124;2023-07-30T08:23:18;96368.22;;;25.32
71640;BMP280;60912;48.968;10.124;2023-07-30T08:25:43;96367.03;;;25.18
71640;BMP280;60912;48.968;10.124;2023-07-30T08:28:08;96375.50;;;24.17
71640;BMP280;60912;48.968;10.124;2023-07-30T08:30:34;96376.16;;;23.79
71640;BMP280;60912;48.968;10.124;2023-07-30T08:32:59;96378.09;;;23.74
71640;BMP280;60912;48.968;10.124;2023-07-30T08:35:25;96370.22;;;23.53
71640;BMP280;60912;48.968;10.124;2023-07-30T08:37:52;96383.06;;;23.23
71640;BMP280;60912;48.968;10.124;2023-07-30T08:40:17;96377.34;;;23.21
71640;BMP280;60912;48.968;10.124;2023-07-30T08:42:43;96376.28;;;23.30
71640;BMP280;60912;48.968;10.124;2023-07-30T08:45:11;96385.56;;;23.32
71640;BMP280;60912;48.968;10.124;2023-07-30T08:47:39;96384.66;;;23.28
71640;BMP280;60912;48.968;10.124;2023-07-30T08:50:04;96382.06;;;23.16
71640;BMP280;60912;48.968;10.124;2023-07-30T08:52:30;96390.09;;;23.06
71640;BMP280;60912;48.968;10.124;2023-07-30T08:54:57;96398.22;;;22.67
71640;BMP280;60912;48.968;10.124;2023-07-30T08:57:24;96404.00;;;22.24
71640;BMP280;60912;48.968;10.124;2023-07-30T08:59:54;96400.31;;;22.19
71640;BMP280;60912;48.968;10.124;2023-07-30T09:02:31;96404.66;;;22.07
71640;BMP280;60912;48.968;10.124;2023-07-30T09:05:00;96409.78;;;21.97
71640;BMP280;60912;48.968;10.124;2023-07-30T09:07:26;96409.28;;;21.86
71640;BMP280;60912;48.968;10.124;2023-07-30T09:09:52;96412.75;;;21.42
71640;BMP280;60912;48.968;10.124;2023-07-30T09:12:17;96412.97;;;21.46
71640;BMP280;60912;48.968;10.124;2023-07-30T09:14:43;96410.53;;;21.54
71640;BMP280;60912;48.968;10.124;2023-07-30T09:17:18;96422.06;;;21.60
71640;BMP280;60912;48.968;10.124;2023-07-30T09:19:43;96414.47;;;21.20
71640;BMP280;60912;48.968;10.124;2023-07-30T09:22:09;96416.94;;;21.14
71640;BMP280;60912;48.968;10.124;2023-07-30T09:24:35;96425.47;;;21.16
71640;BMP280;60912;48.968;10.124;2023-07-30T09:27:02;96420.47;;;21.28
71640;BMP280;60912;48.968;10.124;2023-07-30T09:29:27;96420.03;;;21.47
71640;BMP280;60912;48.968;10.124;2023-07-30T09:31:54;96422.56;;;21.70
71640;BMP280;60912;48.968;10.124;2023-07-30T09:34:23;96410.38;;;21.79
71640;BMP280;60912;48.968;10.124;2023-07-30T09:36:55;96417.88;;;21.61
71640;BMP280;60912;48.968;10.124;2023-07-30T09:39:25;96413.31;;;21.97
71640;BMP280;60912;48.968;10.124;2023-07-30T09:41:52;96402.31;;;22.48
71640;BMP280;60912;48.968;10.124;2023-07-30T09:44:19;96402.28;;;22.79
71640;BMP280;60912;48.968;10.124;2023-07-30T09:46:49;96403.41;;;22.72
71640;BMP280;60912;48.968;10.124;2023-07-30T09:49:15;96409.06;;;22.74
71640;BMP280;60912;48.968;10.124;2023-07-30T09:51:41;96414.09;;;22.60
71640;BMP280;60912;48.968;10.124;2023-07-30T09:54:07;96414.81;;;22.45
71640;BMP280;60912;48.968;10.124;2023-07-30T09:56:35;96418.44;;;22.63
71640;BMP280;60912;48.968;10.124;2023-07-30T09:59:05;96422.22;;;22.85
71640;BMP280;60912;48.968;10.124;2023-07-30T10:01:31;96418.53;;;22.34
71640;BMP280;60912;48.968;10.124;2023-07-30T10:03:57;96417.88;;;22.51
71640;BMP280;60912;48.968;10.124;2023-07-30T10:06:29;96430.91;;;22.91
71640;BMP280;60912;48.968;10.124;2023-07-30T10:08:58;96416.41;;;22.81
71640;BMP280;60912;48.968;10.124;2023-07-30T10:11:24;96421.34;;;22.65
71640;BMP280;60912;48.968;10.124;2023-07-30T10:13:51;96422.69;;;22.95
71640;BMP280;60912;48.968;10.124;2023-07-30T10:16:17;96428.28;;;22.95
71640;BMP280;60912;48.968;10.124;2023-07-30T10:18:43;96418.63;;;23.16
71640;BMP280;60912;48.968;10.124;2023-07-30T10:21:10;96414.81;;;23.43
71640;BMP280;60912;48.968;10.124;2023-07-30T10:23:45;96414.00;;;23.76
71640;BMP280;60912;48.968;10.124;2023-07-30T10:26:11;96409.81;;;23.94
71640;BMP280;60912;48.968;10.124;2023-07-30T10:28:45;96406.38;;;24.15
71640;BMP280;60912;48.968;10.124;2023-07-30T10:31:10;96413.66;;;24.40
71640;BMP280;60912;48.968;10.124;2023-07-30T10:33:50;96414.47;;;24.05
71640;BMP280;60912;48.968;10.124;2023-07-30T10:36:45;96416.84;;;23.58
71640;BMP280;60912;48.968;10.124;2023-07-30T10:39:13;96412.09;;;23.12
71640;BMP280;60912;48.968;10.124;2023-07-30T10:41:38;96408.19;;;23.19
71640;BMP280;60912;48.968;10.124;2023-07-30T10:44:04;96423.44;;;23.14
71640;BMP280;60912;48.968;10.124;2023-07-30T10:46:29;96426.94;;;23.47
71640;BMP280;60912;48.968;10.124;2023-07-30T10:48:55;96422.28;;;23.54
71640;BMP280;60912;48.968;10.124;2023-07-30T10:51:20;96429.22;;;23.86
71640;BMP280;60912;48.968;10.124;2023-07-30T10:53:47;96430.34;;;23.97
71640;BMP280;60912;48.968;10.124;2023-07-30T10:56:13;96429.44;;;23.92
71640;BMP280;60912;48.968;10.124;2023-07-30T10:58:40;96417.19;;;24.21
71640;BMP280;60912;48.968;10.124;2023-07-30T11:01:07;96425.44;;;24.35
71640;BMP280;60912;48.968;10.124;2023-07-30T11:03:33;96425.06;;;24.25
71640;BMP280;60912;48.968;10.124;2023-07-30T11:06:00;96427.19;;;23.89
71640;BMP280;60912;48.968;10.124;2023-07-30T11:08:40;96435.97;;;23.61
71640;BMP280;60912;48.968;10.124;2023-07-30T11:11:07;96432.63;;;23.32
71640;BMP280;60912;48.968;10.124;2023-07-30T11:13:40;96439.63;;;23.31
71640;BMP280;60912;48.968;10.124;2023-07-30T11:16:07;96436.47;;;23.23
71640;BMP280;60912;48.968;10.124;2023-07-30T11:18:32;96435.88;;;23.09
71640;BMP280;60912;48.968;10.124;2023-07-30T11:21:05;96438.09;;;22.94
71640;BMP280;60912;48.968;10.124;2023-07-30T11:23:32;96439.94;;;22.72
71640;BMP280;60912;48.968;10.124;2023-07-30T11:26:00;96442.34;;;22.80
71640;BMP280;60912;48.968;10.124;2023-07-30T11:30:57;96449.00;;;23.04
71640;BMP280;60912;48.968;10.124;2023-07-30T11:33:23;96442.88;;;23.25
71640;BMP280;60912;48.968;10.124;2023-07-30T11:35:49;96448.19;;;23.68
71640;BMP280;60912;48.968;10.124;2023-07-30T11:38:14;96448.03;;;23.82
71640;BMP280;60912;48.968;10.124;2023-07-30T11:40:40;96441.41;;;24.48
71640;BMP280;60912;48.968;10.124;2023-07-30T11:43:08;96443.28;;;24.41
71640;BMP280;60912;48.968;10.124;2023-07-30T11:45:34;96440.38;;;24.39
71640;BMP280;60912;48.968;10.124;2023-07-30T11:48:08;96444.31;;;23.95
71640;BMP280;60912;48.968;10.124;2023-07-30T11:53:12;96442.88;;;24.49
71640;BMP280;60912;48.968;10.124;2023-07-30T11:55:38;96442.16;;;24.31
71640;BMP280;60912;48.968;10.124;2023-07-30T11:58:08;96446.25;;;24.08
71640;BMP280;60912;48.968;10.124;2023-07-30T12:00:35;96441.53;;;24.32
71640;BMP280;60912;48.968;10.124;2023-07-30T12:03:06;96448.34;;;24.07
71640;BMP280;60912;48.968;10.124;2023-07-30T12:05:36;96449.78;;;23.91
71640;BMP280;60912;48.968;10.124;2023-07-30T12:08:03;96459.97;;;24.17
71640;BMP280;60912;48.968;10.124;2023-07-30T12:10:49;96452.59;;;23.91
71640;BMP280;60912;48.968;10.124;2023-07-30T12:13:17;96464.00;;;24.12
71640;BMP280;60912;48.968;10.124;2023-07-30T12:15:53;96457.34;;;24.21
71640;BMP280;60912;48.968;10.124;2023-07-30T12:18:25;96465.13;;;24.05
71640;BMP280;60912;48.968;10.124;2023-07-30T12:20:52;96474.13;;;23.67
71640;BMP280;60912;48.968;10.124;2023-07-30T12:23:19;96477.63;;;23.83
71640;BMP280;60912;48.968;10.124;2023-07-30T12:25:45;96473.91;;;24.13
71640;BMP280;60912;48.968;10.124;2023-07-30T12:28:11;96469.63;;;24.12
71640;BMP280;60912;48.968;10.124;2023-07-30T12:30:36;96469.75;;;23.79
71640;BMP280;60912;48.968;10.124;2023-07-30T12:33:03;96471.06;;;23.43
71640;BMP280;60912;48.968;10.124;2023-07-30T12:35:29;96472.38;;;23.57
71640;BMP280;60912;48.968;10.124;2023-07-30T12:37:55;96470.94;;;24.09
71640;BMP280;60912;48.968;10.124;2023-07-30T12:40:20;96466.25;;;24.16
71640;BMP280;60912;48.968;10.124;2023-07-30T12:42:46;96471.66;;;24.10
71640;BMP280;60912;48.968;10.124;2023-07-30T12:45:11;96464.63;;;24.29
71640;BMP280;60912;48.968;10.124;2023-07-30T12:47:36;96473.50;;;24.58
71640;BMP280;60912;48.968;10.124;2023-07-30T12:50:03;96463.50;;;24.55
71640;BMP280;60912;48.968;10.124;2023-07-30T12:52:29;96474.09;;;24.74
71640;BMP280;60912;48.968;10.124;2023-07-30T12:54:54;96475.06;;;24.44
71640;BMP280;60912;48.968;10.124;2023-07-30T12:57:19;96472.50;;;24.50
71640;BMP280;60912;48.968;10.124;2023-07-30T12:59:45;96473.78;;;24.66
71640;BMP280;60912;48.968;10.124;2023-07-30T13:02:10;96474.53;;;24.67
71640;BMP280;60912;48.968;10.124;2023-07-30T13:04:36;96459.56;;;24.62
71640;BMP280;60912;48.968;10.124;2023-07-30T13:07:01;96472.13;;;24.79
71640;BMP280;60912;48.968;10.124;2023-07-30T13:09:28;96470.59;;;24.76
71640;BMP280;60912;48.968;10.124;2023-07-30T13:11:53;96468.38;;;24.92
71640;BMP280;60912;48.968;10.124;2023-07-30T13:14:19;96462.88;;;24.96
71640;BMP280;60912;48.968;10.124;2023-07-30T13:16:44;96472.63;;;24.93
71640;BMP280;60912;48.968;10.124;2023-07-30T13:19:09;96482.56;;;24.74
71640;BMP280;60912;48.968;10.124;2023-07-30T13:21:35;96493.72;;;24.53
71640;BMP280;60912;48.968;10.124;2023-07-30T13:24:00;96485.00;;;24.64
71640;BMP280;60912;48.968;10.124;2023-07-30T13:26:26;96482.31;;;24.68
71640;BMP280;60912;48.968;10.124;2023-07-30T13:28:51;96487.72;;;24.43
71640;BMP280;60912;48.968;10.124;2023-07-30T13:31:17;96487.03;;;24.25
71640;BMP280;60912;48.968;10.124;2023-07-30T13:33:44;96488.91;;;24.38
71640;BMP280;60912;48.968;10.124;2023-07-30T13:36:10;96485.25;;;24.53
71640;BMP280;60912;48.968;10.124;2023-07-30T13:38:37;96482.72;;;24.41
71640;BMP280;60912;48.968;10.124;2023-07-30T13:41:03;96483.38;;;24.40
71640;BMP280;60912;48.968;10.124;2023-07-30T13:43:29;96491.78;;;24.57
71640;BMP280;60912;48.968;10.124;2023-07-30T13:45:54;96508.44;;;24.89
71640;BMP280;60912;48.968;10.124;2023-07-30T13:48:19;96492.19;;;24.87
71640;BMP280;60912;48.968;10.124;2023-07-30T13:50:45;96475.56;;;25.17
71640;BMP280;60912;48.968;10.124;2023-07-30T13:53:10;96492.66;;;25.01
71640;BMP280;60912;48.968;10.124;2023-07-30T13:55:35;96491.91;;;24.99